sensor_id;sensor_type;location;lat;lon;timestamp;temperature;humidity
77700;DHT22;66867;42.658;23.320;2023-02-22T00:00:00;11.1;50
77700;DHT22;66867;42.658;23.320;2023-02-22T00:01:00;11.1;50
77700;DHT22;66867;42.658;23.320;2023-02-22T00:02:00;11.0;50
77700;DHT22;66867;42.658;23.320;2023-02-22T00:03:00;11.0;50
77700;DHT22;66867;42.658;23.320;2023-02-22T00:04:01;11.0;50
77700;DHT22;66867;42.658;23.320;2023-02-22T00:05:00;11.0;50
77700;DHT22;66867;42.658;23.320;2023-02-22T00:06:01;11.0;50
77700;DHT22;66867;42.658;23.320;2023-02-22T00:07:00;11.1;50
77700;DHT22;66867;42.658;23.320;2023-02-22T00:08:00;11.0;50
77700;DHT22;66867;42.658;23.320;2023-02-22T00:09:00;11.0;51
77700;DHT22;66867;42.658;23.320;2023-02-22T00:10:00;11.0;50
77700;DHT22;66867;42.658;23.320;2023-02-22T00:11:02;11.0;50
77700;DHT22;66867;42.658;23.320;2023-02-22T00:12:00;11.0;50
77700;DHT22;66867;42.658;23.320;2023-02-22T00:13:00;11.0;51
77700;DHT22;66867;42.658;23.320;2023-02-22T00:14:00;11.0;51
77700;DHT22;66867;42.658;23.320;2023-02-22T00:15:00;11.0;50
77700;DHT22;66867;42.658;23.320;2023-02-22T00:16:00;11.0;50
77700;DHT22;66867;42.658;23.320;2023-02-22T00:17:00;11.0;51
77700;DHT22;66867;42.658;23.320;2023-02-22T00:18:00;11.0;51
77700;DHT22;66867;42.658;23.320;2023-02-22T00:19:00;10.9;51
77700;DHT22;66867;42.658;23.320;2023-02-22T00:20:00;10.9;51
77700;DHT22;66867;42.658;23.320;2023-02-22T00:21:00;10.8;52
77700;DHT22;66867;42.658;23.320;2023-02-22T00:22:00;10.8;51
77700;DHT22;66867;42.658;23.320;2023-02-22T00:23:00;10.9;51
77700;DHT22;66867;42.658;23.320;2023-02-22T00:24:00;10.9;51
77700;DHT22;66867;42.658;23.320;2023-02-22T00:25:00;10.9;51
77700;DHT22;66867;42.658;23.320;2023-02-22T00:26:00;10.9;51
77700;DHT22;66867;42.658;23.320;2023-02-22T00:27:00;10.9;51
77700;DHT22;66867;42.658;23.320;2023-02-22T00:28:00;10.9;51
77700;DHT22;66867;42.658;23.320;2023-02-22T00:29:00;10.9;51
77700;DHT22;66867;42.658;23.320;2023-02-22T00:30:00;10.9;51
77700;DHT22;66867;42.658;23.320;2023-02-22T00:31:00;10.9;51
77700;DHT22;66867;42.658;23.320;2023-02-22T00:32:00;10.9;51
77700;DHT22;66867;42.658;23.320;2023-02-22T00:33:00;10.9;51
77700;DHT22;66867;42.658;23.320;2023-02-22T00:34:00;10.9;51
77700;DHT22;66867;42.658;23.320;2023-02-22T00:35:00;10.9;51
77700;DHT22;66867;42.658;23.320;2023-02-22T00:36:00;10.9;51
77700;DHT22;66867;42.658;23.320;2023-02-22T00:37:00;10.9;51
77700;DHT22;66867;42.658;23.320;2023-02-22T00:38:01;10.9;51
77700;DHT22;66867;42.658;23.320;2023-02-22T00:39:00;10.9;51
77700;DHT22;66867;42.658;23.320;2023-02-22T00:40:00;10.9;51
77700;DHT22;66867;42.658;23.320;2023-02-22T00:41:00;10.9;51
77700;DHT22;66867;42.658;23.320;2023-02-22T00:42:00;10.9;51
77700;DHT22;66867;42.658;23.320;2023-02-22T00:43:01;10.9;51
77700;DHT22;66867;42.658;23.320;2023-02-22T00:44:00;10.9;51
77700;DHT22;66867;42.658;23.320;2023-02-22T00:45:00;10.9;51
77700;DHT22;66867;42.658;23.320;2023-02-22T00:46:00;10.9;51
77700;DHT22;66867;42.658;23.320;2023-02-22T00:47:00;10.9;51
77700;DHT22;66867;42.658;23.320;2023-02-22T00:48:00;10.9;51
77700;DHT22;66867;42.658;23.320;2023-02-22T00:49:00;10.9;51
77700;DHT22;66867;42.658;23.320;2023-02-22T00:50:00;10.9;51
77700;DHT22;66867;42.658;23.320;2023-02-22T00:51:00;10.9;52
77700;DHT22;66867;42.658;23.320;2023-02-22T00:52:00;10.8;52
77700;DHT22;66867;42.658;23.320;2023-02-22T00:53:00;10.8;52
77700;DHT22;66867;42.658;23.320;2023-02-22T00:54:00;10.7;52
77700;DHT22;66867;42.658;23.320;2023-02-22T00:55:00;10.7;52
77700;DHT22;66867;42.658;23.320;2023-02-22T00:56:00;10.7;52
77700;DHT22;66867;42.658;23.320;2023-02-22T00:57:00;10.6;52
77700;DHT22;66867;42.658;23.320;2023-02-22T00:58:00;10.6;52
77700;DHT22;66867;42.658;23.320;2023-02-22T00:59:00;10.6;52
77700;DHT22;66867;42.658;23.320;2023-02-22T01:00:03;10.6;52
77700;DHT22;66867;42.658;23.320;2023-02-22T01:01:00;10.5;53
77700;DHT22;66867;42.658;23.320;2023-02-22T01:02:00;10.5;53
77700;DHT22;66867;42.658;23.320;2023-02-22T01:03:00;10.5;52
77700;DHT22;66867;42.658;23.320;2023-02-22T01:04:00;10.5;53
77700;DHT22;66867;42.658;23.320;2023-02-22T01:05:00;10.5;52
77700;DHT22;66867;42.658;23.320;2023-02-22T01:06:00;10.5;52
77700;DHT22;66867;42.658;23.320;2023-02-22T01:07:00;10.5;52
77700;DHT22;66867;42.658;23.320;2023-02-22T01:08:00;10.5;53
77700;DHT22;66867;42.658;23.320;2023-02-22T01:09:00;10.5;52
77700;DHT22;66867;42.658;23.320;2023-02-22T01:10:01;10.5;52
77700;DHT22;66867;42.658;23.320;2023-02-22T01:11:00;10.5;52
77700;DHT22;66867;42.658;23.320;2023-02-22T01:12:00;10.5;52
77700;DHT22;66867;42.658;23.320;2023-02-22T01:13:00;10.5;52
77700;DHT22;66867;42.658;23.320;2023-02-22T01:14:00;10.5;52
77700;DHT22;66867;42.658;23.320;2023-02-22T01:15:01;10.5;52
77700;DHT22;66867;42.658;23.320;2023-02-22T01:16:00;10.5;52
77700;DHT22;66867;42.658;23.320;2023-02-22T01:17:00;10.5;52
77700;DHT22;66867;42.658;23.320;2023-02-22T01:18:00;10.5;52
77700;DHT22;66867;42.658;23.320;2023-02-22T01:19:00;10.5;53
77700;DHT22;66867;42.658;23.320;2023-02-22T01:20:00;10.5;53
77700;DHT22;66867;42.658;23.320;2023-02-22T01:21:00;10.5;53
77700;DHT22;66867;42.658;23.320;2023-02-22T01:22:00;10.4;53
77700;DHT22;66867;42.658;23.320;2023-02-22T01:23:01;10.4;53
77700;DHT22;66867;42.658;23.320;2023-02-22T01:24:00;10.4;53
77700;DHT22;66867;42.658;23.320;2023-02-22T01:25:00;10.4;53
77700;DHT22;66867;42.658;23.320;2023-02-22T01:26:00;10.4;54
77700;DHT22;66867;42.658;23.320;2023-02-22T01:27:00;10.3;54
77700;DHT22;66867;42.658;23.320;2023-02-22T01:28:00;10.3;54
77700;DHT22;66867;42.658;23.320;2023-02-22T01:29:00;10.3;53
77700;DHT22;66867;42.658;23.320;2023-02-22T01:30:00;10.2;53
77700;DHT22;66867;42.658;23.320;2023-02-22T01:31:00;10.2;54
77700;DHT22;66867;42.658;23.320;2023-02-22T01:32:00;10.2;54
77700;DHT22;66867;42.658;23.320;2023-02-22T01:33:01;10.1;54
77700;DHT22;66867;42.658;23.320;2023-02-22T01:34:00;10.1;54
77700;DHT22;66867;42.658;23.320;2023-02-22T01:35:00;10.0;54
77700;DHT22;66867;42.658;23.320;2023-02-22T01:36:00;10.0;54
77700;DHT22;66867;42.658;23.320;2023-02-22T01:37:00;10.0;54
77700;DHT22;66867;42.658;23.320;2023-02-22T01:38:00;10.0;54
77700;DHT22;66867;42.658;23.320;2023-02-22T01:39:00;10.0;54
77700;DHT22;66867;42.658;23.320;2023-02-22T01:40:00;9.9;54
77700;DHT22;66867;42.658;23.320;2023-02-22T01:41:00;9.9;54
77700;DHT22;66867;42.658;23.320;2023-02-22T01:42:00;9.8;55
77700;DHT22;66867;42.658;23.320;2023-02-22T01:43:01;9.8;54
77700;DHT22;66867;42.658;23.320;2023-02-22T01:44:17;9.8;54
77700;DHT22;66867;42.658;23.320;2023-02-22T01:47:01;9.7;54
77700;DHT22;66867;42.658;23.320;2023-02-22T01:48:04;9.7;54
77700;DHT22;66867;42.658;23.320;2023-02-22T01:49:01;9.7;54
77700;DHT22;66867;42.658;23.320;2023-02-22T01:50:00;9.7;54
77700;DHT22;66867;42.658;23.320;2023-02-22T01:52:01;9.6;55
77700;DHT22;66867;42.658;23.320;2023-02-22T01:53:00;9.6;55
77700;DHT22;66867;42.658;23.320;2023-02-22T01:54:02;9.5;55
77700;DHT22;66867;42.658;23.320;2023-02-22T01:55:00;9.5;55
77700;DHT22;66867;42.658;23.320;2023-02-22T01:56:00;9.5;55
77700;DHT22;66867;42.658;23.320;2023-02-22T01:58:00;9.5;55
77700;DHT22;66867;42.658;23.320;2023-02-22T01:59:01;9.5;55
77700;DHT22;66867;42.658;23.320;2023-02-22T02:00:04;9.5;55
77700;DHT22;66867;42.658;23.320;2023-02-22T02:01:00;9.5;55
77700;DHT22;66867;42.658;23.320;2023-02-22T02:02:00;9.5;55
77700;DHT22;66867;42.658;23.320;2023-02-22T02:03:01;9.5;55
77700;DHT22;66867;42.658;23.320;2023-02-22T02:04:02;9.4;55
77700;DHT22;66867;42.658;23.320;2023-02-22T02:05:00;9.4;55
77700;DHT22;66867;42.658;23.320;2023-02-22T02:06:02;9.4;55
77700;DHT22;66867;42.658;23.320;2023-02-22T02:07:02;9.4;55
77700;DHT22;66867;42.658;23.320;2023-02-22T02:08:02;9.4;56
77700;DHT22;66867;42.658;23.320;2023-02-22T02:09:03;9.5;56
77700;DHT22;66867;42.658;23.320;2023-02-22T02:10:03;9.5;56
77700;DHT22;66867;42.658;23.320;2023-02-22T02:11:00;9.5;56
77700;DHT22;66867;42.658;23.320;2023-02-22T02:12:00;9.5;56
77700;DHT22;66867;42.658;23.320;2023-02-22T02:13:00;9.5;56
77700;DHT22;66867;42.658;23.320;2023-02-22T02:14:00;9.5;56
77700;DHT22;66867;42.658;23.320;2023-02-22T02:16:00;9.5;56
77700;DHT22;66867;42.658;23.320;2023-02-22T02:17:00;9.5;56
77700;DHT22;66867;42.658;23.320;2023-02-22T02:18:02;9.5;56
77700;DHT22;66867;42.658;23.320;2023-02-22T02:19:00;9.5;56
77700;DHT22;66867;42.658;23.320;2023-02-22T02:28:06;9.2;56
77700;DHT22;66867;42.658;23.320;2023-02-22T02:34:02;9.0;56
77700;DHT22;66867;42.658;23.320;2023-02-22T02:35:08;9.0;57
77700;DHT22;66867;42.658;23.320;2023-02-22T02:42:01;8.8;57
77700;DHT22;66867;42.658;23.320;2023-02-22T02:43:05;8.8;57
77700;DHT22;66867;42.658;23.320;2023-02-22T02:44:02;8.8;57
77700;DHT22;66867;42.658;23.320;2023-02-22T02:45:03;8.7;57
77700;DHT22;66867;42.658;23.320;2023-02-22T02:48:00;8.8;57
77700;DHT22;66867;42.658;23.320;2023-02-22T02:49:03;8.7;57
77700;DHT22;66867;42.658;23.320;2023-02-22T02:50:05;8.7;57
77700;DHT22;66867;42.658;23.320;2023-02-22T02:51:00;8.7;57
77700;DHT22;66867;42.658;23.320;2023-02-22T02:52:00;8.8;58
77700;DHT22;66867;42.658;23.320;2023-02-22T02:53:01;8.8;58
77700;DHT22;66867;42.658;23.320;2023-02-22T02:54:00;8.8;58
77700;DHT22;66867;42.658;23.320;2023-02-22T02:55:01;8.8;58
77700;DHT22;66867;42.658;23.320;2023-02-22T02:56:00;8.9;58
77700;DHT22;66867;42.658;23.320;2023-02-22T02:57:00;8.8;57
77700;DHT22;66867;42.658;23.320;2023-02-22T02:58:00;8.8;58
77700;DHT22;66867;42.658;23.320;2023-02-22T02:59:00;8.7;58
77700;DHT22;66867;42.658;23.320;2023-02-22T03:00:00;8.7;58
77700;DHT22;66867;42.658;23.320;2023-02-22T03:01:00;8.7;58
77700;DHT22;66867;42.658;23.320;2023-02-22T03:05:07;8.6;58
77700;DHT22;66867;42.658;23.320;2023-02-22T03:07:07;8.6;58
77700;DHT22;66867;42.658;23.320;2023-02-22T03:17:01;8.6;58
77700;DHT22;66867;42.658;23.320;2023-02-22T03:18:02;8.6;58
77700;DHT22;66867;42.658;23.320;2023-02-22T03:20:03;8.5;58
77700;DHT22;66867;42.658;23.320;2023-02-22T03:22:05;8.4;58
77700;DHT22;66867;42.658;23.320;2023-02-22T03:23:03;8.4;59
77700;DHT22;66867;42.658;23.320;2023-02-22T03:25:01;8.4;59
77700;DHT22;66867;42.658;23.320;2023-02-22T03:26:02;8.4;59
77700;DHT22;66867;42.658;23.320;2023-02-22T03:28:02;8.3;59
77700;DHT22;66867;42.658;23.320;2023-02-22T03:29:00;8.3;59
77700;DHT22;66867;42.658;23.320;2023-02-22T03:30:01;8.3;59
77700;DHT22;66867;42.658;23.320;2023-02-22T03:31:01;8.3;59
77700;DHT22;66867;42.658;23.320;2023-02-22T03:32:00;8.2;59
77700;DHT22;66867;42.658;23.320;2023-02-22T03:33:03;8.2;59
77700;DHT22;66867;42.658;23.320;2023-02-22T03:34:01;8.2;59
77700;DHT22;66867;42.658;23.320;2023-02-22T03:35:03;8.2;59
77700;DHT22;66867;42.658;23.320;2023-02-22T03:36:02;8.2;59
77700;DHT22;66867;42.658;23.320;2023-02-22T03:37:02;8.2;59
77700;DHT22;66867;42.658;23.320;2023-02-22T03:38:01;8.2;59
77700;DHT22;66867;42.658;23.320;2023-02-22T03:39:00;8.2;59
77700;DHT22;66867;42.658;23.320;2023-02-22T03:40:01;8.3;59
77700;DHT22;66867;42.658;23.320;2023-02-22T03:41:00;8.3;60
77700;DHT22;66867;42.658;23.320;2023-02-22T03:42:03;8.3;60
77700;DHT22;66867;42.658;23.320;2023-02-22T03:43:02;8.3;60
77700;DHT22;66867;42.658;23.320;2023-02-22T03:44:04;8.3;60
77700;DHT22;66867;42.658;23.320;2023-02-22T03:45:01;8.3;60
77700;DHT22;66867;42.658;23.320;2023-02-22T03:46:00;8.3;60
77700;DHT22;66867;42.658;23.320;2023-02-22T03:47:01;8.3;60
77700;DHT22;66867;42.658;23.320;2023-02-22T03:48:05;8.3;60
77700;DHT22;66867;42.658;23.320;2023-02-22T03:49:01;8.3;60
77700;DHT22;66867;42.658;23.320;2023-02-22T03:50:17;8.3;60
77700;DHT22;66867;42.658;23.320;2023-02-22T03:51:00;8.4;60
77700;DHT22;66867;42.658;23.320;2023-02-22T03:52:00;8.4;60
77700;DHT22;66867;42.658;23.320;2023-02-22T03:53:00;8.4;60
77700;DHT22;66867;42.658;23.320;2023-02-22T03:54:00;8.4;60
77700;DHT22;66867;42.658;23.320;2023-02-22T03:55:00;8.4;60
77700;DHT22;66867;42.658;23.320;2023-02-22T03:56:00;8.3;60
77700;DHT22;66867;42.658;23.320;2023-02-22T03:57:05;8.3;60
77700;DHT22;66867;42.658;23.320;2023-02-22T03:58:01;8.4;60
77700;DHT22;66867;42.658;23.320;2023-02-22T03:59:08;8.3;60
77700;DHT22;66867;42.658;23.320;2023-02-22T04:00:00;8.3;60
77700;DHT22;66867;42.658;23.320;2023-02-22T04:01:00;8.3;60
77700;DHT22;66867;42.658;23.320;2023-02-22T04:02:00;8.3;60
77700;DHT22;66867;42.658;23.320;2023-02-22T04:03:01;8.3;60
77700;DHT22;66867;42.658;23.320;2023-02-22T04:04:00;8.3;60
77700;DHT22;66867;42.658;23.320;2023-02-22T04:05:00;8.2;60
77700;DHT22;66867;42.658;23.320;2023-02-22T04:06:00;8.2;60
77700;DHT22;66867;42.658;23.320;2023-02-22T04:07:00;8.2;60
77700;DHT22;66867;42.658;23.320;2023-02-22T04:08:00;8.2;60
77700;DHT22;66867;42.658;23.320;2023-02-22T04:09:00;8.2;60
77700;DHT22;66867;42.658;23.320;2023-02-22T04:10:00;8.3;60
77700;DHT22;66867;42.658;23.320;2023-02-22T04:11:00;8.3;60
77700;DHT22;66867;42.658;23.320;2023-02-22T04:12:00;8.2;60
77700;DHT22;66867;42.658;23.320;2023-02-22T04:13:00;8.2;61
77700;DHT22;66867;42.658;23.320;2023-02-22T04:14:00;8.2;61
77700;DHT22;66867;42.658;23.320;2023-02-22T04:15:00;8.2;61
77700;DHT22;66867;42.658;23.320;2023-02-22T04:16:00;8.2;61
77700;DHT22;66867;42.658;23.320;2023-02-22T04:17:00;8.2;61
77700;DHT22;66867;42.658;23.320;2023-02-22T04:18:00;8.2;61
77700;DHT22;66867;42.658;23.320;2023-02-22T04:19:00;8.2;60
77700;DHT22;66867;42.658;23.320;2023-02-22T04:20:00;8.2;61
77700;DHT22;66867;42.658;23.320;2023-02-22T04:21:00;8.2;61
77700;DHT22;66867;42.658;23.320;2023-02-22T04:22:00;8.1;61
77700;DHT22;66867;42.658;23.320;2023-02-22T04:23:00;8.1;61
77700;DHT22;66867;42.658;23.320;2023-02-22T04:24:00;8.1;61
77700;DHT22;66867;42.658;23.320;2023-02-22T04:25:00;8.1;61
77700;DHT22;66867;42.658;23.320;2023-02-22T04:26:00;8.1;61
77700;DHT22;66867;42.658;23.320;2023-02-22T04:27:00;8.1;61
77700;DHT22;66867;42.658;23.320;2023-02-22T04:28:00;8.0;61
77700;DHT22;66867;42.658;23.320;2023-02-22T04:29:00;8.0;61
77700;DHT22;66867;42.658;23.320;2023-02-22T04:30:00;8.0;61
77700;DHT22;66867;42.658;23.320;2023-02-22T04:31:00;8.0;61
77700;DHT22;66867;42.658;23.320;2023-02-22T04:32:00;8.0;61
77700;DHT22;66867;42.658;23.320;2023-02-22T04:33:00;8.0;61
77700;DHT22;66867;42.658;23.320;2023-02-22T04:34:00;8.0;61
77700;DHT22;66867;42.658;23.320;2023-02-22T04:35:00;7.9;61
77700;DHT22;66867;42.658;23.320;2023-02-22T04:36:00;7.9;61
77700;DHT22;66867;42.658;23.320;2023-02-22T04:37:00;8.0;61
77700;DHT22;66867;42.658;23.320;2023-02-22T04:38:00;8.0;61
77700;DHT22;66867;42.658;23.320;2023-02-22T04:39:00;8.0;61
77700;DHT22;66867;42.658;23.320;2023-02-22T04:40:00;7.9;61
77700;DHT22;66867;42.658;23.320;2023-02-22T04:41:00;7.9;61
77700;DHT22;66867;42.658;23.320;2023-02-22T04:42:00;7.9;61
77700;DHT22;66867;42.658;23.320;2023-02-22T04:43:00;7.9;61
77700;DHT22;66867;42.658;23.320;2023-02-22T04:44:00;7.9;61
77700;DHT22;66867;42.658;23.320;2023-02-22T04:45:00;7.9;61
77700;DHT22;66867;42.658;23.320;2023-02-22T04:46:00;7.9;61
77700;DHT22;66867;42.658;23.320;2023-02-22T04:47:00;7.9;61
77700;DHT22;66867;42.658;23.320;2023-02-22T04:48:00;7.9;61
77700;DHT22;66867;42.658;23.320;2023-02-22T04:49:00;7.9;61
77700;DHT22;66867;42.658;23.320;2023-02-22T04:50:00;7.9;61
77700;DHT22;66867;42.658;23.320;2023-02-22T04:51:00;7.9;61
77700;DHT22;66867;42.658;23.320;2023-02-22T04:52:00;7.9;61
77700;DHT22;66867;42.658;23.320;2023-02-22T04:53:00;7.9;61
77700;DHT22;66867;42.658;23.320;2023-02-22T04:54:00;7.9;61
77700;DHT22;66867;42.658;23.320;2023-02-22T04:55:00;7.9;61
77700;DHT22;66867;42.658;23.320;2023-02-22T04:56:00;7.9;61
77700;DHT22;66867;42.658;23.320;2023-02-22T04:57:00;7.8;61
77700;DHT22;66867;42.658;23.320;2023-02-22T04:58:00;7.8;61
77700;DHT22;66867;42.658;23.320;2023-02-22T04:59:00;7.9;61
77700;DHT22;66867;42.658;23.320;2023-02-22T05:00:00;7.9;61
77700;DHT22;66867;42.658;23.320;2023-02-22T05:01:00;7.8;61
77700;DHT22;66867;42.658;23.320;2023-02-22T05:02:00;7.8;61
77700;DHT22;66867;42.658;23.320;2023-02-22T05:03:00;7.8;61
77700;DHT22;66867;42.658;23.320;2023-02-22T05:04:01;7.8;61
77700;DHT22;66867;42.658;23.320;2023-02-22T05:05:00;7.9;61
77700;DHT22;66867;42.658;23.320;2023-02-22T05:06:00;7.8;61
77700;DHT22;66867;42.658;23.320;2023-02-22T05:07:00;7.8;61
77700;DHT22;66867;42.658;23.320;2023-02-22T05:08:00;7.8;61
77700;DHT22;66867;42.658;23.320;2023-02-22T05:09:00;7.8;62
77700;DHT22;66867;42.658;23.320;2023-02-22T05:10:00;7.8;62
77700;DHT22;66867;42.658;23.320;2023-02-22T05:11:00;7.8;62
77700;DHT22;66867;42.658;23.320;2023-02-22T05:12:00;7.8;62
77700;DHT22;66867;42.658;23.320;2023-02-22T05:13:00;7.8;61
77700;DHT22;66867;42.658;23.320;2023-02-22T05:14:00;7.8;61
77700;DHT22;66867;42.658;23.320;2023-02-22T05:15:00;7.8;61
77700;DHT22;66867;42.658;23.320;2023-02-22T05:16:00;7.8;62
77700;DHT22;66867;42.658;23.320;2023-02-22T05:17:00;7.8;61
77700;DHT22;66867;42.658;23.320;2023-02-22T05:18:00;7.8;61
77700;DHT22;66867;42.658;23.320;2023-02-22T05:19:00;7.8;61
77700;DHT22;66867;42.658;23.320;2023-02-22T05:20:00;7.8;62
77700;DHT22;66867;42.658;23.320;2023-02-22T05:21:00;7.8;62
77700;DHT22;66867;42.658;23.320;2023-02-22T05:22:00;7.8;61
77700;DHT22;66867;42.658;23.320;2023-02-22T05:23:00;7.8;61
77700;DHT22;66867;42.658;23.320;2023-02-22T05:24:00;7.7;61
77700;DHT22;66867;42.658;23.320;2023-02-22T05:25:00;7.7;61
77700;DHT22;66867;42.658;23.320;2023-02-22T05:26:00;7.7;62
77700;DHT22;66867;42.658;23.320;2023-02-22T05:27:00;7.7;62
77700;DHT22;66867;42.658;23.320;2023-02-22T05:28:02;7.7;62
77700;DHT22;66867;42.658;23.320;2023-02-22T05:29:00;7.7;62
77700;DHT22;66867;42.658;23.320;2023-02-22T05:30:00;7.7;62
77700;DHT22;66867;42.658;23.320;2023-02-22T05:31:00;7.7;62
77700;DHT22;66867;42.658;23.320;2023-02-22T05:32:00;7.7;62
77700;DHT22;66867;42.658;23.320;2023-02-22T05:33:00;7.8;63
77700;DHT22;66867;42.658;23.320;2023-02-22T05:34:00;7.8;64
77700;DHT22;66867;42.658;23.320;2023-02-22T05:35:00;7.9;65
77700;DHT22;66867;42.658;23.320;2023-02-22T05:36:00;8.0;65
77700;DHT22;66867;42.658;23.320;2023-02-22T05:37:00;8.1;65
77700;DHT22;66867;42.658;23.320;2023-02-22T05:38:00;8.1;64
77700;DHT22;66867;42.658;23.320;2023-02-22T05:39:00;8.3;64
77700;DHT22;66867;42.658;23.320;2023-02-22T05:40:00;8.4;64
77700;DHT22;66867;42.658;23.320;2023-02-22T05:41:00;8.6;63
77700;DHT22;66867;42.658;23.320;2023-02-22T05:42:00;8.8;63
77700;DHT22;66867;42.658;23.320;2023-02-22T05:43:00;8.9;62
77700;DHT22;66867;42.658;23.320;2023-02-22T05:44:00;9.0;62
77700;DHT22;66867;42.658;23.320;2023-02-22T05:45:00;9.1;62
77700;DHT22;66867;42.658;23.320;2023-02-22T05:46:00;9.2;61
77700;DHT22;66867;42.658;23.320;2023-02-22T05:47:00;9.3;61
77700;DHT22;66867;42.658;23.320;2023-02-22T05:48:00;9.3;61
77700;DHT22;66867;42.658;23.320;2023-02-22T05:49:00;9.4;61
77700;DHT22;66867;42.658;23.320;2023-02-22T05:50:00;9.6;60
77700;DHT22;66867;42.658;23.320;2023-02-22T05:51:00;9.8;60
77700;DHT22;66867;42.658;23.320;2023-02-22T05:52:00;9.9;60
77700;DHT22;66867;42.658;23.320;2023-02-22T05:53:00;9.9;60
77700;DHT22;66867;42.658;23.320;2023-02-22T05:54:00;10.0;59
77700;DHT22;66867;42.658;23.320;2023-02-22T05:55:00;10.2;59
77700;DHT22;66867;42.658;23.320;2023-02-22T05:56:00;10.2;58
77700;DHT22;66867;42.658;23.320;2023-02-22T05:57:00;10.3;58
77700;DHT22;66867;42.658;23.320;2023-02-22T05:58:00;10.5;58
77700;DHT22;66867;42.658;23.320;2023-02-22T05:59:00;10.5;58
77700;DHT22;66867;42.658;23.320;2023-02-22T06:00:01;10.6;58
77700;DHT22;66867;42.658;23.320;2023-02-22T06:01:00;10.7;57
77700;DHT22;66867;42.658;23.320;2023-02-22T06:02:00;10.8;57
77700;DHT22;66867;42.658;23.320;2023-02-22T06:03:01;10.8;57
77700;DHT22;66867;42.658;23.320;2023-02-22T06:04:00;10.9;57
77700;DHT22;66867;42.658;23.320;2023-02-22T06:05:00;11.0;56
77700;DHT22;66867;42.658;23.320;2023-02-22T06:06:00;11.1;56
77700;DHT22;66867;42.658;23.320;2023-02-22T06:07:00;11.2;56
77700;DHT22;66867;42.658;23.320;2023-02-22T06:08:00;11.3;56
77700;DHT22;66867;42.658;23.320;2023-02-22T06:09:00;11.3;56
77700;DHT22;66867;42.658;23.320;2023-02-22T06:10:00;11.5;55
77700;DHT22;66867;42.658;23.320;2023-02-22T06:11:00;11.6;55
77700;DHT22;66867;42.658;23.320;2023-02-22T06:12:00;11.6;55
77700;DHT22;66867;42.658;23.320;2023-02-22T06:13:00;11.8;55
77700;DHT22;66867;42.658;23.320;2023-02-22T06:14:00;11.9;55
77700;DHT22;66867;42.658;23.320;2023-02-22T06:15:00;12.0;55
77700;DHT22;66867;42.658;23.320;2023-02-22T06:16:00;12.0;55
77700;DHT22;66867;42.658;23.320;2023-02-22T06:17:00;12.1;54
77700;DHT22;66867;42.658;23.320;2023-02-22T06:18:00;12.2;54
77700;DHT22;66867;42.658;23.320;2023-02-22T06:19:00;12.4;53
77700;DHT22;66867;42.658;23.320;2023-02-22T06:20:00;12.5;53
77700;DHT22;66867;42.658;23.320;2023-02-22T06:21:00;12.6;53
77700;DHT22;66867;42.658;23.320;2023-02-22T06:22:00;12.7;53
77700;DHT22;66867;42.658;23.320;2023-02-22T06:23:00;12.8;53
77700;DHT22;66867;42.658;23.320;2023-02-22T06:24:01;12.9;52
77700;DHT22;66867;42.658;23.320;2023-02-22T06:25:02;13.0;52
77700;DHT22;66867;42.658;23.320;2023-02-22T06:26:00;13.2;52
77700;DHT22;66867;42.658;23.320;2023-02-22T06:27:00;13.2;51
77700;DHT22;66867;42.658;23.320;2023-02-22T06:28:00;13.2;50
77700;DHT22;66867;42.658;23.320;2023-02-22T06:29:00;13.1;50
77700;DHT22;66867;42.658;23.320;2023-02-22T06:30:00;13.0;52
77700;DHT22;66867;42.658;23.320;2023-02-22T06:31:00;13.2;52
77700;DHT22;66867;42.658;23.320;2023-02-22T06:32:00;13.3;52
77700;DHT22;66867;42.658;23.320;2023-02-22T06:33:00;13.5;51
77700;DHT22;66867;42.658;23.320;2023-02-22T06:34:00;13.7;50
77700;DHT22;66867;42.658;23.320;2023-02-22T06:35:00;13.8;50
77700;DHT22;66867;42.658;23.320;2023-02-22T06:36:00;13.9;50
77700;DHT22;66867;42.658;23.320;2023-02-22T06:37:00;14.0;50
77700;DHT22;66867;42.658;23.320;2023-02-22T06:38:00;14.1;50
77700;DHT22;66867;42.658;23.320;2023-02-22T06:44:00;14.7;48
77700;DHT22;66867;42.658;23.320;2023-02-22T06:45:00;14.8;47
77700;DHT22;66867;42.658;23.320;2023-02-22T06:46:00;14.9;47
77700;DHT22;66867;42.658;23.320;2023-02-22T06:47:00;15.1;47
77700;DHT22;66867;42.658;23.320;2023-02-22T06:48:00;15.2;46
77700;DHT22;66867;42.658;23.320;2023-02-22T06:49:00;15.3;46
77700;DHT22;66867;42.658;23.320;2023-02-22T06:50:00;15.4;46
77700;DHT22;66867;42.658;23.320;2023-02-22T06:51:00;15.5;46
77700;DHT22;66867;42.658;23.320;2023-02-22T06:52:00;15.6;46
77700;DHT22;66867;42.658;23.320;2023-02-22T06:53:00;15.8;46
77700;DHT22;66867;42.658;23.320;2023-02-22T06:54:00;15.9;46
77700;DHT22;66867;42.658;23.320;2023-02-22T06:55:00;16.0;45
77700;DHT22;66867;42.658;23.320;2023-02-22T06:56:00;16.1;45
77700;DHT22;66867;42.658;23.320;2023-02-22T06:57:00;16.2;45
77700;DHT22;66867;42.658;23.320;2023-02-22T06:58:00;16.3;45
77700;DHT22;66867;42.658;23.320;2023-02-22T06:59:00;16.3;45
77700;DHT22;66867;42.658;23.320;2023-02-22T07:00:00;16.4;45
77700;DHT22;66867;42.658;23.320;2023-02-22T07:01:00;16.5;45
77700;DHT22;66867;42.658;23.320;2023-02-22T07:02:00;16.5;45
77700;DHT22;66867;42.658;23.320;2023-02-22T07:03:00;16.6;44
77700;DHT22;66867;42.658;23.320;2023-02-22T07:04:00;16.7;44
77700;DHT22;66867;42.658;23.320;2023-02-22T07:05:00;16.8;44
77700;DHT22;66867;42.658;23.320;2023-02-22T07:06:00;16.9;43
77700;DHT22;66867;42.658;23.320;2023-02-22T07:07:00;17.0;43
77700;DHT22;66867;42.658;23.320;2023-02-22T07:08:01;17.0;43
77700;DHT22;66867;42.658;23.320;2023-02-22T07:09:00;17.1;43
77700;DHT22;66867;42.658;23.320;2023-02-22T07:10:00;17.1;43
77700;DHT22;66867;42.658;23.320;2023-02-22T07:11:00;17.2;43
77700;DHT22;66867;42.658;23.320;2023-02-22T07:12:00;17.3;42
77700;DHT22;66867;42.658;23.320;2023-02-22T07:13:00;17.4;42
77700;DHT22;66867;42.658;23.320;2023-02-22T07:14:00;17.5;42
77700;DHT22;66867;42.658;23.320;2023-02-22T07:15:00;17.6;41
77700;DHT22;66867;42.658;23.320;2023-02-22T07:16:00;17.7;41
77700;DHT22;66867;42.658;23.320;2023-02-22T07:17:00;17.8;41
77700;DHT22;66867;42.658;23.320;2023-02-22T07:18:00;17.9;41
77700;DHT22;66867;42.658;23.320;2023-02-22T07:19:00;18.0;41
77700;DHT22;66867;42.658;23.320;2023-02-22T07:20:00;18.2;41
77700;DHT22;66867;42.658;23.320;2023-02-22T07:21:00;18.2;40
77700;DHT22;66867;42.658;23.320;2023-02-22T07:22:00;18.3;40
77700;DHT22;66867;42.658;23.320;2023-02-22T07:23:00;18.4;40
77700;DHT22;66867;42.658;23.320;2023-02-22T07:24:00;18.5;40
77700;DHT22;66867;42.658;23.320;2023-02-22T07:25:00;18.5;40
77700;DHT22;66867;42.658;23.320;2023-02-22T07:26:00;18.6;40
77700;DHT22;66867;42.658;23.320;2023-02-22T07:27:00;18.7;40
77700;DHT22;66867;42.658;23.320;2023-02-22T07:28:00;18.8;40
77700;DHT22;66867;42.658;23.320;2023-02-22T07:29:00;18.9;39